createdAt,value
2018-08-19T00:01:02.584Z,25.50
2018-08-19T00:03:34.665Z,25.50
2018-08-19T00:06:06.198Z,25.50
2018-08-19T00:08:37.753Z,25.50
2018-08-19T00:16:13.717Z,25.70
2018-08-19T00:18:45.310Z,25.60
2018-08-19T00:21:16.833Z,25.50
2018-08-19T00:23:50.701Z,25.50
2018-08-19T00:26:22.220Z,25.50
2018-08-19T00:28:53.753Z,25.50
2018-08-19T00:31:25.359Z,25.50
2018-08-19T00:33:57.415Z,25.50
2018-08-19T00:36:35.851Z,25.50
2018-08-19T00:39:10.508Z,25.50
2018-08-19T00:41:41.859Z,25.50
2018-08-19T00:44:13.399Z,25.50
2018-08-19T00:46:44.784Z,25.50
2018-08-19T00:49:16.196Z,25.50
2018-08-19T00:51:52.681Z,25.50
2018-08-19T00:54:24.203Z,25.50
2018-08-19T00:56:57.344Z,25.40
2018-08-19T00:59:33.311Z,25.50
2018-08-19T01:02:04.769Z,25.50
2018-08-19T01:04:36.226Z,25.40
2018-08-19T01:07:07.692Z,25.40
2018-08-19T01:09:39.225Z,25.40
2018-08-19T01:12:10.756Z,25.40
2018-08-19T01:14:42.311Z,25.50
2018-08-19T01:17:13.800Z,25.40
2018-08-19T01:19:45.301Z,25.40
2018-08-19T01:22:16.770Z,25.40
2018-08-19T01:24:48.324Z,25.40
2018-08-19T01:27:19.853Z,25.40
2018-08-19T01:29:51.362Z,25.40
2018-08-19T01:32:23.978Z,25.40
2018-08-19T01:34:55.534Z,25.40
2018-08-19T01:37:26.882Z,25.40
2018-08-19T01:39:58.413Z,25.40
2018-08-19T01:42:29.757Z,25.40
2018-08-19T01:45:01.313Z,25.40
2018-08-19T01:47:32.750Z,25.40
2018-08-19T02:01:12.451Z,25.30
2018-08-19T02:03:43.623Z,25.30
2018-08-19T02:06:14.777Z,25.30
2018-08-19T02:08:45.877Z,25.30
2018-08-19T02:11:31.630Z,25.30
2018-08-19T02:14:02.703Z,25.30
2018-08-19T02:16:33.725Z,25.30
2018-08-19T02:19:05.315Z,25.30
2018-08-19T02:21:36.589Z,25.30
2018-08-19T02:24:08.309Z,25.30
2018-08-19T02:26:39.606Z,25.30
2018-08-19T02:29:37.702Z,25.30
2018-08-19T02:32:11.210Z,25.30
2018-08-19T02:34:44.556Z,25.20
2018-08-19T02:37:17.665Z,25.20
2018-08-19T02:39:51.434Z,25.20
2018-08-19T02:42:30.516Z,25.20
2018-08-19T02:45:05.278Z,25.20
2018-08-19T02:47:37.224Z,25.20
2018-08-19T02:50:08.481Z,25.20
2018-08-19T02:52:40.308Z,25.20
2018-08-19T02:55:11.589Z,25.20
2018-08-19T02:57:42.710Z,25.20
2018-08-19T03:00:14.667Z,25.20
2018-08-19T03:02:48.667Z,25.20
2018-08-19T03:05:19.722Z,25.20
2018-08-19T03:07:50.824Z,25.20
2018-08-19T03:10:21.859Z,25.20
2018-08-19T03:12:52.831Z,25.20
2018-08-19T03:15:23.865Z,25.10
2018-08-19T03:17:54.861Z,25.20
2018-08-19T03:20:25.859Z,25.10
2018-08-19T03:22:56.819Z,25.20
2018-08-19T03:25:27.877Z,25.20
2018-08-19T03:27:58.819Z,25.10
2018-08-19T03:30:29.823Z,25.10
2018-08-19T03:33:02.440Z,25.10
2018-08-19T03:35:33.655Z,25.10
2018-08-19T03:38:08.742Z,25.10
2018-08-19T03:40:39.705Z,25.10
2018-08-19T03:43:12.205Z,25.10
2018-08-19T03:45:43.403Z,25.10
2018-08-19T03:48:21.317Z,25.10
2018-08-19T03:50:52.618Z,25.10
2018-08-19T03:53:23.678Z,25.10
2018-08-19T03:55:54.715Z,25.10
2018-08-19T03:58:25.834Z,25.10
2018-08-19T04:00:56.855Z,25.10
2018-08-19T04:03:27.992Z,25.10
2018-08-19T04:06:00.862Z,25.10
2018-08-19T04:08:40.674Z,25.10
2018-08-19T04:11:14.744Z,25.10
2018-08-19T04:13:45.778Z,25.10
2018-08-19T04:16:16.833Z,25.10
2018-08-19T04:18:48.746Z,25.10
2018-08-19T04:21:19.886Z,25.10
2018-08-19T04:23:51.280Z,25.10
2018-08-19T04:26:22.462Z,25.10
2018-08-19T04:28:53.664Z,25.10
2018-08-19T04:31:25.501Z,25.10
2018-08-19T04:33:56.820Z,25.10
2018-08-19T04:36:27.819Z,25.10
2018-08-19T04:38:59.711Z,25.10
2018-08-19T04:41:31.212Z,25.10
2018-08-19T04:44:02.503Z,25.10
2018-08-19T04:46:33.869Z,25.10
2018-08-19T04:49:04.865Z,25.10
2018-08-19T04:51:35.865Z,25.10
2018-08-19T04:54:07.611Z,25.10
2018-08-19T04:56:39.632Z,25.10
2018-08-19T04:59:10.976Z,25.10
2018-08-19T05:01:41.540Z,25.10
2018-08-19T05:05:51.582Z,25.10
2018-08-19T05:08:22.865Z,25.10
2018-08-19T05:10:54.231Z,25.10
2018-08-19T05:13:25.728Z,25.10
2018-08-19T05:21:06.637Z,25.30
2018-08-19T05:23:37.976Z,25.20
2018-08-19T05:26:08.573Z,25.10
2018-08-19T05:28:40.005Z,25.10
2018-08-19T05:31:11.472Z,25.20
2018-08-19T05:33:45.300Z,25.20
2018-08-19T05:36:16.841Z,25.20
2018-08-19T05:38:48.673Z,25.20
2018-08-19T05:41:20.191Z,25.20
2018-08-19T05:43:51.685Z,25.20
2018-08-19T05:46:23.064Z,25.20
2018-08-19T05:48:58.446Z,25.30
2018-08-19T05:51:29.719Z,25.30
2018-08-19T05:54:01.345Z,25.30
2018-08-19T05:56:32.760Z,25.30
2018-08-19T05:59:04.381Z,25.30
2018-08-19T06:01:35.923Z,25.30
2018-08-19T06:04:06.662Z,25.40
2018-08-19T06:06:38.004Z,25.40
2018-08-19T06:09:09.884Z,25.40
2018-08-19T06:11:41.408Z,25.50
2018-08-19T06:14:12.834Z,25.50
2018-08-19T06:16:44.554Z,25.50
2018-08-19T06:19:16.210Z,25.50
2018-08-19T06:21:48.207Z,25.60
2018-08-19T06:24:20.225Z,25.60
2018-08-19T06:26:51.714Z,25.60
2018-08-19T06:29:28.307Z,25.70
2018-08-19T06:31:59.794Z,25.70
2018-08-19T06:34:31.645Z,25.70
2018-08-19T06:37:02.993Z,25.70
2018-08-19T06:39:34.582Z,25.70
2018-08-19T06:42:05.900Z,25.70
2018-08-19T06:44:36.591Z,25.80
2018-08-19T06:47:08.801Z,25.80
2018-08-19T06:49:45.196Z,25.80
2018-08-19T06:52:16.728Z,25.90
2018-08-19T06:54:48.200Z,25.90
2018-08-19T06:57:19.671Z,25.90
2018-08-19T06:59:51.188Z,25.90
2018-08-19T07:02:24.709Z,25.90
2018-08-19T07:04:56.442Z,25.90
2018-08-19T07:07:27.965Z,25.90
2018-08-19T07:09:59.721Z,26.00
2018-08-19T07:12:31.904Z,26.00
2018-08-19T07:15:02.574Z,26.00
2018-08-19T07:17:34.208Z,26.00
2018-08-19T07:20:05.972Z,26.00
2018-08-19T07:22:37.612Z,26.00
2018-08-19T07:25:09.207Z,26.10
2018-08-19T07:27:40.753Z,26.10
2018-08-19T07:30:12.310Z,26.10
2018-08-19T07:32:43.729Z,26.10
2018-08-19T07:35:15.256Z,26.10
2018-08-19T07:37:46.778Z,26.10
2018-08-19T07:40:18.288Z,26.10
2018-08-19T07:42:49.810Z,26.10
2018-08-19T07:45:21.417Z,26.20
2018-08-19T07:47:52.819Z,26.20
2018-08-19T07:52:54.601Z,26.20
2018-08-19T07:55:26.006Z,26.20
2018-08-19T07:57:57.537Z,26.20
2018-08-19T08:00:34.221Z,26.20
2018-08-19T08:03:05.737Z,26.30
2018-08-19T08:05:42.218Z,26.30
2018-08-19T08:08:13.708Z,26.30
2018-08-19T08:10:45.369Z,26.30
2018-08-19T08:13:17.207Z,26.30
2018-08-19T08:15:53.704Z,26.30
2018-08-19T08:18:25.394Z,26.30
2018-08-19T08:21:02.846Z,26.40
2018-08-19T08:23:34.490Z,26.40
2018-08-19T08:26:08.859Z,26.40
2018-08-19T08:28:40.544Z,26.40
2018-08-19T08:31:12.508Z,26.40
2018-08-19T08:33:43.871Z,26.40
2018-08-19T08:36:15.549Z,26.40
2018-08-19T08:38:47.211Z,26.40
2018-08-19T08:41:18.752Z,26.50
2018-08-19T08:43:50.303Z,26.40
2018-08-19T08:46:21.777Z,26.40
2018-08-19T08:48:53.321Z,26.50
2018-08-19T08:51:24.712Z,26.50
2018-08-19T08:53:56.650Z,26.40
2018-08-19T08:56:28.262Z,26.50
2018-08-19T08:58:59.681Z,26.50
2018-08-19T09:01:31.328Z,26.50
2018-08-19T09:04:02.798Z,26.50
2018-08-19T09:06:34.185Z,26.50
2018-08-19T09:09:06.749Z,26.50
2018-08-19T09:11:38.336Z,26.50
2018-08-19T09:14:09.768Z,26.50
2018-08-19T09:16:41.405Z,26.50
2018-08-19T09:19:12.743Z,26.50
2018-08-19T09:21:44.413Z,26.50
2018-08-19T09:24:15.766Z,26.50
2018-08-19T09:26:47.310Z,26.50
2018-08-19T09:29:18.760Z,26.50
2018-08-19T09:31:50.398Z,26.60
2018-08-19T09:34:21.839Z,26.60
2018-08-19T09:36:53.388Z,26.60
2018-08-19T09:39:24.959Z,26.60
2018-08-19T09:41:59.625Z,26.60
2018-08-19T09:44:31.340Z,26.60
2018-08-19T09:47:02.836Z,26.60
2018-08-19T09:49:34.339Z,26.60
2018-08-19T09:52:05.857Z,26.60
2018-08-19T09:54:38.369Z,26.60
2018-08-19T09:57:10.781Z,26.60
2018-08-19T09:59:42.324Z,26.60
2018-08-19T10:02:13.785Z,26.60
2018-08-19T10:04:45.314Z,26.60
2018-08-19T10:07:16.814Z,26.60
2018-08-19T10:09:48.312Z,26.60
2018-08-19T10:12:19.823Z,26.60
2018-08-19T10:14:51.320Z,26.60
2018-08-19T10:17:22.784Z,26.60
2018-08-19T10:19:54.308Z,26.60
2018-08-19T10:22:29.662Z,26.60
2018-08-19T10:25:01.205Z,26.60
2018-08-19T10:27:32.754Z,26.60
2018-08-19T10:30:04.435Z,26.60
2018-08-19T10:32:35.824Z,26.60
2018-08-19T10:35:12.578Z,26.60
2018-08-19T10:37:44.312Z,26.60
2018-08-19T10:40:15.800Z,26.60
2018-08-19T10:47:54.480Z,26.70
2018-08-19T10:50:31.219Z,26.60
2018-08-19T10:53:02.878Z,26.60
2018-08-19T10:55:34.450Z,26.60
2018-08-19T10:58:06.331Z,26.60
2018-08-19T11:00:37.847Z,26.60
2018-08-19T11:03:24.197Z,26.50
2018-08-19T11:05:56.848Z,26.50
2018-08-19T11:08:28.347Z,26.50
2018-08-19T11:11:01.875Z,26.50
2018-08-19T11:13:33.721Z,26.50
2018-08-19T11:16:05.213Z,26.50
2018-08-19T11:18:41.331Z,26.50
2018-08-19T11:21:18.599Z,26.50
2018-08-19T11:23:50.217Z,26.60
2018-08-19T11:26:21.738Z,26.50
2018-08-19T11:29:00.576Z,26.60
2018-08-19T11:31:33.347Z,26.60
2018-08-19T11:34:07.393Z,26.60
2018-08-19T11:36:46.791Z,26.60
2018-08-19T11:39:18.747Z,26.60
2018-08-19T11:41:50.364Z,26.60
2018-08-19T11:44:22.459Z,26.50
2018-08-19T11:46:53.973Z,26.60
2018-08-19T11:49:24.668Z,26.60
2018-08-19T11:52:01.219Z,26.60
2018-08-19T11:54:33.558Z,26.60
2018-08-19T11:57:09.419Z,26.60
2018-08-19T11:59:41.987Z,26.60
2018-08-19T12:02:21.786Z,26.60
2018-08-19T12:04:53.314Z,26.60
2018-08-19T12:07:24.794Z,26.60
2018-08-19T12:10:02.236Z,26.70
2018-08-19T12:12:47.709Z,26.70
2018-08-19T12:15:19.215Z,26.60
2018-08-19T12:17:50.675Z,26.70
2018-08-19T12:20:29.208Z,26.70
2018-08-19T12:23:00.734Z,26.70
2018-08-19T12:25:32.417Z,26.60
2018-08-19T12:28:03.871Z,26.60
2018-08-19T12:30:35.680Z,26.60
2018-08-19T12:33:23.303Z,26.60
2018-08-19T12:35:57.721Z,26.60
2018-08-19T12:38:29.352Z,26.60
2018-08-19T12:41:02.677Z,26.60
2018-08-19T12:43:35.350Z,26.60
2018-08-19T12:46:06.787Z,26.60
2018-08-19T12:53:39.864Z,26.80
2018-08-19T12:56:11.627Z,26.70
2018-08-19T12:58:42.842Z,26.60
2018-08-19T13:01:14.410Z,26.60
2018-08-19T13:03:45.973Z,26.60
2018-08-19T13:06:16.561Z,26.60
2018-08-19T13:08:47.969Z,26.60
2018-08-19T13:11:18.591Z,26.60
2018-08-19T13:13:49.909Z,26.60
2018-08-19T13:16:20.537Z,26.60
2018-08-19T13:18:52.013Z,26.60
2018-08-19T13:21:23.739Z,26.60
2018-08-19T13:23:55.330Z,26.60
2018-08-19T13:26:26.810Z,26.60
2018-08-19T13:28:58.431Z,26.60
2018-08-19T13:31:33.571Z,26.60
2018-08-19T13:34:05.737Z,26.60
2018-08-19T13:36:37.426Z,26.60
2018-08-19T13:39:11.215Z,26.60
2018-08-19T13:41:42.761Z,26.60
2018-08-19T13:44:14.234Z,26.60
2018-08-19T13:46:45.740Z,26.60
2018-08-19T13:49:23.225Z,26.60
2018-08-19T13:51:54.740Z,26.60
2018-08-19T13:54:26.327Z,26.60
2018-08-19T13:56:58.215Z,26.60
2018-08-19T13:59:29.753Z,26.60
2018-08-19T14:02:01.425Z,26.60
2018-08-19T14:04:32.764Z,26.60
2018-08-19T14:07:04.329Z,26.60
2018-08-19T14:09:35.819Z,26.60
2018-08-19T14:12:09.782Z,26.60
2018-08-19T14:14:42.747Z,26.60
2018-08-19T14:17:14.319Z,26.60
2018-08-19T14:19:49.898Z,26.60
2018-08-19T14:22:25.042Z,26.60
2018-08-19T14:24:56.750Z,26.60
2018-08-19T14:27:28.307Z,26.60
2018-08-19T14:29:59.840Z,26.60
2018-08-19T14:32:39.224Z,26.60
2018-08-19T14:35:10.753Z,26.60
2018-08-19T14:37:42.305Z,26.60
2018-08-19T14:40:17.422Z,26.60
2018-08-19T14:42:48.909Z,26.60
2018-08-19T14:45:19.612Z,26.60
2018-08-19T14:50:37.714Z,26.60
2018-08-19T14:53:08.826Z,26.60
2018-08-19T14:55:39.872Z,26.60
2018-08-19T14:58:19.409Z,26.60
2018-08-19T15:00:50.699Z,26.60
2018-08-19T15:03:21.915Z,26.60
2018-08-19T15:06:06.579Z,26.60
2018-08-19T15:08:37.749Z,26.60
2018-08-19T15:11:08.877Z,26.60
2018-08-19T15:13:39.869Z,26.60
2018-08-19T15:16:10.914Z,26.60
2018-08-19T15:18:42.320Z,26.60
2018-08-19T15:21:13.634Z,26.60
2018-08-19T15:23:44.752Z,26.60
2018-08-19T15:26:15.841Z,26.60
2018-08-19T15:28:46.851Z,26.60
2018-08-19T15:31:23.211Z,26.60
2018-08-19T15:33:55.317Z,26.60
2018-08-19T15:36:26.637Z,26.60
2018-08-19T15:38:57.734Z,26.60
2018-08-19T15:41:28.910Z,26.60
2018-08-19T15:43:59.485Z,26.60
2018-08-19T15:46:30.699Z,26.60
2018-08-19T15:49:01.763Z,26.60
2018-08-19T15:51:32.885Z,26.60
2018-08-19T15:54:03.909Z,26.60
2018-08-19T15:56:35.031Z,26.60
2018-08-19T15:59:08.874Z,26.60
2018-08-19T16:01:40.763Z,26.60
2018-08-19T16:04:17.665Z,26.60
2018-08-19T16:06:50.214Z,26.60
2018-08-19T16:09:22.689Z,26.60
2018-08-19T16:11:54.232Z,26.60
2018-08-19T16:14:33.787Z,26.60
2018-08-19T16:19:35.766Z,26.60
2018-08-19T16:22:06.852Z,26.60
2018-08-19T16:26:58.622Z,26.60
2018-08-19T16:29:29.683Z,26.70
2018-08-19T16:32:00.718Z,26.60
2018-08-19T16:34:31.723Z,26.60
2018-08-19T16:37:02.978Z,26.60
2018-08-19T16:39:33.366Z,26.60
2018-08-19T16:42:04.684Z,26.60
2018-08-19T16:44:35.898Z,26.60
2018-08-19T16:47:06.916Z,26.60
2018-08-19T16:49:37.359Z,26.60
2018-08-19T16:52:08.661Z,26.60
2018-08-19T16:54:39.760Z,26.60
2018-08-19T16:57:10.994Z,26.60
2018-08-19T16:59:41.873Z,26.60
2018-08-19T17:02:12.892Z,26.60
2018-08-19T17:04:43.866Z,26.60
2018-08-19T17:07:14.803Z,26.60
2018-08-19T17:09:45.883Z,26.70
2018-08-19T17:12:16.891Z,26.60
2018-08-19T17:14:48.325Z,26.60
2018-08-19T17:17:19.595Z,26.60
2018-08-19T17:19:50.713Z,26.60
2018-08-19T17:22:21.737Z,26.60
2018-08-19T17:24:52.673Z,26.60
2018-08-19T17:27:23.748Z,26.60
2018-08-19T17:29:55.005Z,26.60
2018-08-19T17:32:26.019Z,26.60
2018-08-19T17:34:57.649Z,26.60
2018-08-19T17:37:29.204Z,26.60
2018-08-19T17:40:01.420Z,26.70
2018-08-19T17:42:32.986Z,26.60
2018-08-19T17:45:04.556Z,26.70
2018-08-19T17:47:35.896Z,26.70
2018-08-19T17:50:07.359Z,26.70
2018-08-19T17:52:38.830Z,26.70
2018-08-19T17:55:10.376Z,26.70
2018-08-19T17:57:41.723Z,26.70
2018-08-19T18:00:13.313Z,26.60
2018-08-19T18:02:44.762Z,26.70
2018-08-19T18:05:17.317Z,26.70
2018-08-19T18:10:34.937Z,26.70
2018-08-19T18:13:05.293Z,26.70
2018-08-19T18:15:36.637Z,26.70
2018-08-19T18:18:07.797Z,26.70
2018-08-19T18:26:00.644Z,26.90
2018-08-19T18:28:32.738Z,26.80
2018-08-19T18:31:10.332Z,26.70
2018-08-19T18:33:51.618Z,26.70
2018-08-19T18:36:24.704Z,26.70
2018-08-19T18:38:55.651Z,26.70
2018-08-19T18:41:30.557Z,26.70
2018-08-19T18:44:08.313Z,26.70
2018-08-19T18:46:39.571Z,26.70
2018-08-19T18:49:12.719Z,26.70
2018-08-19T18:51:48.671Z,26.70
2018-08-19T18:54:30.450Z,26.70
2018-08-19T18:57:09.304Z,26.70
2018-08-19T18:59:45.199Z,26.60
2018-08-19T19:02:16.472Z,26.60
2018-08-19T19:04:47.701Z,26.60
2018-08-19T19:07:18.694Z,26.60
2018-08-19T19:09:51.545Z,26.60
2018-08-19T19:12:24.616Z,26.60
2018-08-19T19:14:55.735Z,26.60
2018-08-19T19:17:27.041Z,26.60
2018-08-19T19:19:58.727Z,26.60
2018-08-19T19:22:30.357Z,26.60
2018-08-19T19:25:01.783Z,26.60
2018-08-19T19:27:33.216Z,26.60
2018-08-19T19:30:05.709Z,26.60
2018-08-19T19:32:37.323Z,26.60
2018-08-19T19:35:19.753Z,26.50
2018-08-19T19:37:51.302Z,26.50
2018-08-19T19:40:23.776Z,26.50
2018-08-19T19:42:55.205Z,26.50
2018-08-19T19:45:26.732Z,26.50
2018-08-19T19:47:58.312Z,26.50
2018-08-19T19:50:29.780Z,26.50
2018-08-19T19:53:00.822Z,26.50
2018-08-19T19:55:31.927Z,26.50
2018-08-19T19:58:04.703Z,26.50
2018-08-19T20:01:08.637Z,26.40
2018-08-19T20:03:45.315Z,26.40
2018-08-19T20:06:16.840Z,26.40
2018-08-19T20:08:48.382Z,26.40
2018-08-19T20:11:24.817Z,26.40
2018-08-19T20:13:59.718Z,26.40
2018-08-19T20:16:31.343Z,26.40
2018-08-19T20:19:02.802Z,26.30
2018-08-19T20:21:37.798Z,26.40
2018-08-19T20:24:09.305Z,26.40
2018-08-19T20:26:40.714Z,26.30
2018-08-19T20:29:12.215Z,26.30
2018-08-19T20:31:43.724Z,26.30
2018-08-19T20:34:15.209Z,26.30
2018-08-19T20:36:46.729Z,26.30
2018-08-19T20:39:18.208Z,26.30
2018-08-19T20:41:49.795Z,26.30
2018-08-19T20:44:21.195Z,26.30
2018-08-19T20:46:56.734Z,26.30
2018-08-19T20:49:28.902Z,26.30
2018-08-19T20:51:59.572Z,26.20
2018-08-19T20:54:30.994Z,26.20
2018-08-19T20:57:02.722Z,26.20
2018-08-19T20:59:36.746Z,26.20
2018-08-19T21:02:09.713Z,26.20
2018-08-19T21:07:04.450Z,26.20
2018-08-19T21:09:36.727Z,26.20
2018-08-19T21:12:07.828Z,26.20
2018-08-19T21:14:38.876Z,26.10
2018-08-19T21:17:09.861Z,26.10
2018-08-19T21:19:41.652Z,26.10
2018-08-19T21:22:12.683Z,26.10
2018-08-19T21:24:43.690Z,26.10
2018-08-19T21:27:14.713Z,26.10
2018-08-19T21:29:45.877Z,26.10
2018-08-19T21:32:16.850Z,26.10
2018-08-19T21:34:47.814Z,26.10
2018-08-19T21:37:50.421Z,26.10
2018-08-19T21:40:29.317Z,26.10
2018-08-19T21:43:00.574Z,26.10
2018-08-19T21:45:31.728Z,26.10
2018-08-19T21:48:02.607Z,26.00
2018-08-19T21:50:33.577Z,26.00
2018-08-19T21:53:09.827Z,26.00
2018-08-19T21:55:41.891Z,26.00
2018-08-19T21:58:12.823Z,26.00
2018-08-19T22:06:18.774Z,26.00
2018-08-19T22:08:49.812Z,26.00
2018-08-19T22:11:20.858Z,26.00
2018-08-19T22:13:51.819Z,26.00
2018-08-19T22:18:53.914Z,25.90
2018-08-19T22:21:25.881Z,25.90
2018-08-19T22:24:01.201Z,25.90
2018-08-19T22:26:32.429Z,25.90
2018-08-19T22:29:16.685Z,25.90
2018-08-19T22:31:47.749Z,25.90
2018-08-19T22:34:19.208Z,25.90
2018-08-19T22:36:50.420Z,25.90
2018-08-19T22:39:21.750Z,25.90
2018-08-19T22:41:53.597Z,25.90
2018-08-19T22:44:24.804Z,25.90
2018-08-19T22:46:56.207Z,25.90
2018-08-19T22:49:30.385Z,25.90
2018-08-19T22:52:24.755Z,25.80
2018-08-19T22:54:58.911Z,25.80
2018-08-19T22:57:29.575Z,25.80
2018-08-19T23:00:00.879Z,25.80
2018-08-19T23:02:33.304Z,25.80
2018-08-19T23:05:04.897Z,25.80
2018-08-19T23:07:35.584Z,25.80
2018-08-19T23:10:07.339Z,25.80
2018-08-19T23:15:37.879Z,25.80
2018-08-19T23:18:09.448Z,25.80
2018-08-19T23:20:40.639Z,25.70
2018-08-19T23:23:11.644Z,25.70
2018-08-19T23:25:42.760Z,25.70
2018-08-19T23:28:13.840Z,25.70
2018-08-19T23:30:44.896Z,25.70
2018-08-19T23:33:15.889Z,25.70
2018-08-19T23:35:46.340Z,25.70
2018-08-19T23:38:17.737Z,25.70
2018-08-19T23:40:48.773Z,25.70
2018-08-19T23:43:19.849Z,25.70
2018-08-19T23:45:50.766Z,25.70
2018-08-19T23:48:21.824Z,25.70
2018-08-19T23:50:52.884Z,25.70
2018-08-19T23:53:23.854Z,25.70
2018-08-19T23:55:54.868Z,25.70
2018-08-19T23:58:25.856Z,25.70
